METAR Data
IDs: Format: Raw Decoded Include TAF

Data at: 2347 UTC 24 Apr 2019

METAR for:KTNU (Newton Muni, IA, US)
Text:KTNU 242335Z AUTO 16005KT 10SM CLR 19/10 A2980 RMK AO2
Temperature: 19.0°C ( 66°F)
Dewpoint: 10.0°C ( 50°F) [RH = 56%]
Pressure (altimeter):29.80 inches Hg (1009.2 mb)
Winds:from the SSE (160 degrees) at 6 MPH (5 knots; 2.6 m/s)
Visibility:10 or more sm (16+ km)
Ceiling:at least 12,000 feet AGL
Clouds:sky clear below 12,000 feet AGL
QC Flag:automated observation with no human augmentation